Time;durP1;ratioP1;P1;durP2;ratioP2;P2;SDS_P1;SDS_P2;PMS_P1;PMS_P2;Temp;Humidity;BMP_temperature;BMP_pressure;BME280_temperature;BME280_humidity;BME280_pressure;Samples;Min_cycle;Max_cycle;Signal;HPM_P1;HPM_P2
2022/10/08 00:00:47;;;;;;;;;;;21.90;63.40;;;;;;5017793;28;836;-69
2022/10/08 00:03:13;;;;;;;;;;;21.80;63.40;;;;;;5016915;28;882;-70
2022/10/08 00:05:38;;;;;;;;;;;21.90;63.50;;;;;;5018373;28;962;-70
2022/10/08 00:08:04;;;;;;;;;;;21.90;63.50;;;;;;5003042;28;1303;-70
2022/10/08 00:10:31;;;;;;;;;;;21.90;63.50;;;;;;5002540;28;884;-70
2022/10/08 00:12:57;;;;;;;;;;;21.90;64.40;;;;;;5023372;28;2040;-70
2022/10/08 00:15:23;;;;;;;;;;;21.90;63.60;;;;;;5022312;28;943;-70
2022/10/08 00:17:48;;;;;;;;;;;21.80;63.60;;;;;;5018741;28;1354;-69
2022/10/08 00:20:14;;;;;;;;;;;21.80;63.50;;;;;;5019516;28;875;-69
2022/10/08 00:22:40;;;;;;;;;;;21.80;63.60;;;;;;5019886;28;856;-69
2022/10/08 00:25:05;;;;;;;;;;;21.80;63.60;;;;;;5020308;28;829;-69
2022/10/08 00:27:32;;;;;;;;;;;21.80;63.70;;;;;;5017958;28;1384;-69
2022/10/08 00:29:57;;;;;;;;;;;21.80;63.70;;;;;;5018617;28;921;-69
2022/10/08 00:32:23;;;;;;;;;;;21.80;63.70;;;;;;5020167;28;1039;-69
2022/10/08 00:34:49;;;;;;;;;;;21.80;63.80;;;;;;5017329;28;1902;-69
2022/10/08 00:37:14;;;;;;;;;;;21.80;63.80;;;;;;5017336;28;1304;-69
2022/10/08 00:39:40;;;;;;;;;;;21.80;63.80;;;;;;5019880;28;865;-69
2022/10/08 00:42:05;;;;;;;;;;;21.80;63.90;;;;;;5016455;28;892;-69
2022/10/08 00:44:53;;;;;;;;;;;21.80;63.90;;;;;;5019282;28;824;-69
2022/10/08 00:47:21;;;;;;;;;;;21.80;63.90;;;;;;5019528;28;1347;-69
2022/10/08 00:49:48;;;;;;;;;;;21.80;64.00;;;;;;5017293;28;883;-69
2022/10/08 00:52:13;;;;;;;;;;;21.80;64.00;;;;;;5017221;28;900;-69
2022/10/08 00:54:39;;;;;;;;;;;21.80;64.00;;;;;;5016272;28;1952;-69
2022/10/08 00:57:05;;;;;;;;;;;21.80;64.10;;;;;;5014443;28;1354;-69
2022/10/08 00:59:30;;;;;;;;;;;21.70;64.00;;;;;;5018035;28;824;-69
2022/10/08 01:01:56;;;;;;;;;;;21.70;64.00;;;;;;5004134;28;1026;-69
2022/10/08 01:04:21;;;;;;;;;;;21.70;64.10;;;;;;5020083;28;1065;-69
2022/10/08 01:06:57;;;;;;;;;;;21.70;64.10;;;;;;5021272;28;1342;-69
2022/10/08 01:09:26;;;;;;;;;;;21.70;64.10;;;;;;5000737;28;1034;-69
2022/10/08 01:11:57;;;;;;;;;;;21.70;64.10;;;;;;5003262;28;1081;-69
2022/10/08 01:14:35;;;;;;;;;;;21.70;64.10;;;;;;5022361;28;1963;-69
2022/10/08 01:17:01;;;;;;;;;;;21.70;64.20;;;;;;5017502;28;1257;-69
2022/10/08 01:19:26;;;;;;;;;;;21.70;64.20;;;;;;5014185;28;963;-69
2022/10/08 01:21:59;;;;;;;;;;;21.70;64.20;;;;;;5019029;28;1042;-70
2022/10/08 01:27:27;;;;;;;;;;;21.70;64.30;;;;;;5006344;28;1368;-69
2022/10/08 01:29:52;;;;;;;;;;;21.70;64.30;;;;;;5002316;28;904;-69
2022/10/08 01:32:19;;;;;;;;;;;21.70;64.30;;;;;;5002799;28;1364;-69
2022/10/08 01:34:47;;;;;;;;;;;21.70;64.40;;;;;;5004348;28;1906;-70
2022/10/08 01:37:15;;;;;;;;;;;21.70;64.40;;;;;;5016512;28;1261;-69
2022/10/08 01:39:40;;;;;;;;;;;21.70;64.40;;;;;;5001567;28;860;-69
2022/10/08 01:42:06;;;;;;;;;;;21.70;64.40;;;;;;5001414;28;864;-69
2022/10/08 01:44:32;;;;;;;;;;;21.70;64.40;;;;;;5003367;28;1055;-68
2022/10/08 01:46:58;;;;;;;;;;;21.70;64.40;;;;;;5019232;28;1411;-69
2022/10/08 01:49:24;;;;;;;;;;;21.70;64.50;;;;;;4999812;28;928;-69
2022/10/08 01:51:54;;;;;;;;;;;21.60;64.50;;;;;;5003205;28;954;-70
2022/10/08 01:54:19;;;;;;;;;;;21.60;64.50;;;;;;5006271;28;1954;-69
2022/10/08 01:56:45;;;;;;;;;;;21.60;64.50;;;;;;5004048;28;1333;-69
2022/10/08 01:59:10;;;;;;;;;;;21.60;64.50;;;;;;5002447;28;879;-68
2022/10/08 02:01:38;;;;;;;;;;;21.60;64.50;;;;;;5016465;28;825;-70
2022/10/08 02:06:49;;;;;;;;;;;21.60;64.60;;;;;;5018748;28;1334;-69
2022/10/08 02:09:15;;;;;;;;;;;21.60;64.60;;;;;;4999996;28;775;-69
2022/10/08 02:11:40;;;;;;;;;;;21.60;64.60;;;;;;4991014;28;1492;-69
2022/10/08 02:14:06;;;;;;;;;;;21.60;64.70;;;;;;5020798;28;1965;-70
2022/10/08 02:16:31;;;;;;;;;;;21.60;64.70;;;;;;5022906;28;1349;-70
2022/10/08 02:19:05;;;;;;;;;;;21.60;64.70;;;;;;5023735;28;868;-70
2022/10/08 02:21:31;;;;;;;;;;;21.60;64.70;;;;;;5023391;28;1062;-69
2022/10/08 02:24:05;;;;;;;;;;;21.60;64.70;;;;;;5006910;28;942;-69
2022/10/08 02:26:32;;;;;;;;;;;21.60;64.70;;;;;;5021256;28;1354;-69
2022/10/08 02:29:01;;;;;;;;;;;21.60;64.80;;;;;;5002791;28;899;-69
2022/10/08 02:31:39;;;;;;;;;;;21.60;64.80;;;;;;5022797;28;1362;-69
2022/10/08 02:34:10;;;;;;;;;;;21.60;64.80;;;;;;5022940;28;1967;-69
2022/10/08 02:36:37;;;;;;;;;;;21.60;64.80;;;;;;5022310;28;1360;-69
2022/10/08 02:39:03;;;;;;;;;;;21.60;64.80;;;;;;5003293;28;861;-69
2022/10/08 02:41:32;;;;;;;;;;;21.60;64.80;;;;;;5019136;28;880;-69
2022/10/08 02:43:58;;;;;;;;;;;21.60;64.90;;;;;;5002002;28;1087;-68
2022/10/08 02:46:24;;;;;;;;;;;21.60;64.90;;;;;;5001454;28;1295;-69
2022/10/08 02:49:01;;;;;;;;;;;21.50;64.90;;;;;;5005305;28;1039;-69
2022/10/08 02:51:26;;;;;;;;;;;21.60;64.90;;;;;;5002279;28;859;-69
2022/10/08 02:53:52;;;;;;;;;;;21.50;64.80;;;;;;5003596;28;1907;-70
2022/10/08 02:56:23;;;;;;;;;;;21.60;65.00;;;;;;5005146;28;1207;-69
2022/10/08 02:58:48;;;;;;;;;;;21.50;64.90;;;;;;5007019;28;839;-70
2022/10/08 03:01:18;;;;;;;;;;;21.60;65.00;;;;;;5021642;28;923;-69
2022/10/08 03:03:48;;;;;;;;;;;21.50;64.90;;;;;;5008525;28;963;-69
2022/10/08 03:06:13;;;;;;;;;;;21.50;65.00;;;;;;5005645;28;1256;-70
2022/10/08 03:08:40;;;;;;;;;;;21.50;65.00;;;;;;5004042;28;1168;-68
2022/10/08 03:11:05;;;;;;;;;;;21.50;65.00;;;;;;5018543;28;855;-69
2022/10/08 03:13:32;;;;;;;;;;;21.60;65.10;;;;;;5019672;28;2551;-69
2022/10/08 03:15:58;;;;;;;;;;;21.60;65.20;;;;;;5007693;28;1060;-69
2022/10/08 03:18:24;;;;;;;;;;;21.60;65.10;;;;;;5021307;28;1298;-69
2022/10/08 03:20:50;;;;;;;;;;;21.70;65.20;;;;;;5017826;28;950;-69
2022/10/08 03:23:16;;;;;;;;;;;21.70;65.00;;;;;;5003369;28;824;-69
2022/10/08 03:25:41;;;;;;;;;;;21.80;64.80;;;;;;5020908;28;948;-69
2022/10/08 03:28:07;;;;;;;;;;;21.90;64.60;;;;;;5021854;28;1268;-69
2022/10/08 03:30:32;;;;;;;;;;;22.00;64.40;;;;;;5020342;28;919;-69
2022/10/08 03:32:58;;;;;;;;;;;22.10;64.10;;;;;;5022833;28;1890;-68
2022/10/08 03:35:23;;;;;;;;;;;22.20;63.90;;;;;;5018609;28;876;-70
2022/10/08 03:37:50;;;;;;;;;;;22.30;63.60;;;;;;5018000;28;1322;-69
2022/10/08 03:40:15;;;;;;;;;;;22.30;63.30;;;;;;5021533;28;1007;-69
2022/10/08 03:42:41;;;;;;;;;;;22.40;63.00;;;;;;5004381;28;953;-70
2022/10/08 03:45:06;;;;;;;;;;;22.50;62.80;;;;;;5016676;28;861;-69
2022/10/08 03:47:32;;;;;;;;;;;22.60;62.70;;;;;;5020366;28;1348;-69
2022/10/08 03:49:57;;;;;;;;;;;22.60;62.40;;;;;;5020002;28;846;-69
2022/10/08 03:52:23;;;;;;;;;;;22.70;62.30;;;;;;5020268;28;884;-70
2022/10/08 03:54:48;;;;;;;;;;;22.70;62.10;;;;;;5021238;28;1902;-69
2022/10/08 03:57:13;;;;;;;;;;;22.80;61.90;;;;;;5021306;28;1389;-69
2022/10/08 03:59:39;;;;;;;;;;;22.80;61.70;;;;;;5016670;28;1050;-69
2022/10/08 04:02:04;;;;;;;;;;;22.90;61.60;;;;;;5018468;28;1053;-69
2022/10/08 04:04:30;;;;;;;;;;;23.00;61.50;;;;;;5019910;28;909;-69
2022/10/08 04:06:55;;;;;;;;;;;23.00;61.40;;;;;;5018747;28;1273;-69
2022/10/08 04:09:21;;;;;;;;;;;23.00;61.30;;;;;;5020408;28;1737;-69
2022/10/08 04:11:46;;;;;;;;;;;23.10;61.20;;;;;;5018479;28;1023;-69
2022/10/08 04:14:11;;;;;;;;;;;23.10;61.00;;;;;;5018329;28;1902;-69
2022/10/08 04:16:37;;;;;;;;;;;23.10;60.90;;;;;;5016867;28;1342;-69
2022/10/08 04:19:02;;;;;;;;;;;23.20;60.90;;;;;;5021285;28;792;-69
2022/10/08 04:21:28;;;;;;;;;;;23.20;60.80;;;;;;5021142;28;856;-69
2022/10/08 04:23:53;;;;;;;;;;;23.20;60.70;;;;;;5020927;28;991;-69
2022/10/08 04:26:19;;;;;;;;;;;23.20;60.60;;;;;;5004959;28;1364;-69
2022/10/08 04:28:44;;;;;;;;;;;23.30;60.60;;;;;;5019337;28;1431;-69
2022/10/08 04:31:11;;;;;;;;;;;23.30;60.50;;;;;;5020808;28;1396;-69
2022/10/08 04:33:36;;;;;;;;;;;23.40;60.40;;;;;;5020480;28;1902;-70
2022/10/08 04:36:08;;;;;;;;;;;23.40;60.30;;;;;;5002140;28;816;-69
2022/10/08 04:38:34;;;;;;;;;;;23.40;60.30;;;;;;5018935;28;2974;-69
2022/10/08 04:41:03;;;;;;;;;;;23.40;60.20;;;;;;5019408;28;2210;-69
2022/10/08 04:43:28;;;;;;;;;;;23.50;60.10;;;;;;5006411;28;4902;-69
2022/10/08 04:45:54;;;;;;;;;;;23.50;60.00;;;;;;4998840;28;4068;-69
2022/10/08 04:48:19;;;;;;;;;;;23.50;60.00;;;;;;5020457;28;1279;-70
2022/10/08 04:50:45;;;;;;;;;;;23.60;60.00;;;;;;5020581;28;864;-69
2022/10/08 04:53:10;;;;;;;;;;;23.60;59.90;;;;;;5017311;28;1910;-69
2022/10/08 04:55:35;;;;;;;;;;;23.70;59.80;;;;;;5018224;28;1548;-69
2022/10/08 04:58:01;;;;;;;;;;;23.70;59.80;;;;;;5016063;28;1334;-69
2022/10/08 05:00:26;;;;;;;;;;;23.70;59.70;;;;;;5017405;28;1057;-69
2022/10/08 05:02:52;;;;;;;;;;;23.70;59.60;;;;;;5018200;28;789;-68
2022/10/08 05:05:17;;;;;;;;;;;23.80;59.70;;;;;;5015048;28;876;-69
2022/10/08 05:07:43;;;;;;;;;;;23.80;59.60;;;;;;5002517;28;1362;-69
2022/10/08 05:10:08;;;;;;;;;;;23.80;59.50;;;;;;5020200;28;985;-68
2022/10/08 05:12:34;;;;;;;;;;;23.80;59.40;;;;;;5001555;28;793;-68
2022/10/08 05:14:59;;;;;;;;;;;23.80;59.40;;;;;;5004619;28;1914;-69
2022/10/08 05:17:24;;;;;;;;;;;23.80;59.40;;;;;;5004353;28;1339;-69
2022/10/08 05:19:50;;;;;;;;;;;23.90;59.40;;;;;;5017606;28;904;-69
2022/10/08 05:22:15;;;;;;;;;;;23.90;59.40;;;;;;5019542;28;888;-69
2022/10/08 05:24:41;;;;;;;;;;;23.90;59.40;;;;;;5019917;28;839;-69
2022/10/08 05:27:06;;;;;;;;;;;23.90;59.40;;;;;;5017622;28;1358;-69
2022/10/08 05:29:32;;;;;;;;;;;23.90;59.40;;;;;;5019939;28;1022;-67
2022/10/08 05:31:57;;;;;;;;;;;23.90;59.40;;;;;;5017649;28;1058;-67
2022/10/08 05:34:22;;;;;;;;;;;23.90;59.50;;;;;;5017370;28;1958;-68
2022/10/08 05:36:48;;;;;;;;;;;23.90;59.50;;;;;;5002062;28;1414;-67
2022/10/08 05:39:13;;;;;;;;;;;23.90;59.50;;;;;;5001230;28;1397;-67
2022/10/08 05:41:39;;;;;;;;;;;24.00;59.50;;;;;;5017472;28;797;-68
2022/10/08 05:44:05;;;;;;;;;;;23.90;59.40;;;;;;5001531;28;1069;-68
2022/10/08 05:46:30;;;;;;;;;;;23.90;59.40;;;;;;5021007;28;1216;-68
2022/10/08 05:48:56;;;;;;;;;;;24.00;59.50;;;;;;5008765;28;907;-67
2022/10/08 05:51:22;;;;;;;;;;;24.00;59.50;;;;;;5005285;28;904;-68
2022/10/08 05:53:49;;;;;;;;;;;24.00;59.40;;;;;;5019089;28;1898;-68
2022/10/08 05:56:15;;;;;;;;;;;24.00;59.40;;;;;;5023916;28;1363;-67
2022/10/08 05:58:41;;;;;;;;;;;24.00;59.40;;;;;;5022638;28;812;-67
2022/10/08 06:01:07;;;;;;;;;;;24.00;59.40;;;;;;5021679;28;831;-69
2022/10/08 06:03:33;;;;;;;;;;;24.00;59.40;;;;;;5008175;28;1416;-67
2022/10/08 06:06:02;;;;;;;;;;;24.00;59.40;;;;;;5022310;28;1540;-68
2022/10/08 06:08:27;;;;;;;;;;;24.00;59.40;;;;;;4993885;28;1441;-68
2022/10/08 06:10:54;;;;;;;;;;;24.00;59.40;;;;;;5022245;28;1208;-68
2022/10/08 06:13:19;;;;;;;;;;;24.00;59.40;;;;;;5019999;28;1967;-68
2022/10/08 06:15:55;;;;;;;;;;;24.00;59.40;;;;;;5023077;28;859;-68
2022/10/08 06:18:20;;;;;;;;;;;24.10;59.50;;;;;;5018787;28;1855;-68
2022/10/08 06:20:46;;;;;;;;;;;24.00;59.40;;;;;;5023085;28;1664;-68
2022/10/08 06:23:11;;;;;;;;;;;24.00;59.40;;;;;;5020381;28;1445;-68
2022/10/08 06:25:36;;;;;;;;;;;24.00;59.40;;;;;;5019110;28;1315;-67
2022/10/08 06:28:02;;;;;;;;;;;24.00;59.50;;;;;;5022419;28;1352;-68
2022/10/08 06:30:27;;;;;;;;;;;24.10;59.60;;;;;;5018612;28;945;-68
2022/10/08 06:32:53;;;;;;;;;;;24.00;59.60;;;;;;5017956;28;1442;-68
2022/10/08 06:35:18;;;;;;;;;;;24.00;59.60;;;;;;5017913;28;1910;-67
2022/10/08 06:37:46;;;;;;;;;;;24.00;59.70;;;;;;5017778;28;1606;-67
2022/10/08 06:40:11;;;;;;;;;;;24.00;59.70;;;;;;5018944;28;900;-68
2022/10/08 06:42:37;;;;;;;;;;;24.00;59.70;;;;;;5020498;28;966;-68
2022/10/08 06:45:02;;;;;;;;;;;24.00;59.80;;;;;;5018867;28;906;-68
2022/10/08 06:47:28;;;;;;;;;;;24.00;59.90;;;;;;5018460;28;1255;-68
2022/10/08 06:49:53;;;;;;;;;;;23.90;59.90;;;;;;5020202;28;1002;-68
2022/10/08 06:52:19;;;;;;;;;;;23.90;60.00;;;;;;5022081;28;1100;-68
2022/10/08 06:54:44;;;;;;;;;;;23.90;60.10;;;;;;5019493;28;1898;-68
2022/10/08 06:57:09;;;;;;;;;;;23.80;60.00;;;;;;5020902;28;1368;-68
2022/10/08 06:59:35;;;;;;;;;;;23.80;60.20;;;;;;5019403;28;903;-68
2022/10/08 07:02:00;;;;;;;;;;;23.80;60.20;;;;;;5018490;28;1014;-68
2022/10/08 07:04:26;;;;;;;;;;;23.80;60.30;;;;;;5022536;28;835;-66
2022/10/08 07:06:51;;;;;;;;;;;23.80;60.30;;;;;;5023257;28;1338;-67
2022/10/08 07:09:17;;;;;;;;;;;23.80;60.40;;;;;;5021365;28;978;-67
2022/10/08 07:11:42;;;;;;;;;;;23.70;60.40;;;;;;5021507;28;1144;-67
2022/10/08 07:14:08;;;;;;;;;;;23.70;60.50;;;;;;5018183;28;1914;-68
2022/10/08 07:16:33;;;;;;;;;;;23.70;61.00;;;;;;5021780;28;1964;-69
2022/10/08 07:18:59;;;;;;;;;;;23.70;61.10;;;;;;5020429;28;2012;-68
2022/10/08 07:21:24;;;;;;;;;;;23.70;61.40;;;;;;5022425;28;1473;-68
2022/10/08 07:23:50;;;;;;;;;;;23.60;61.50;;;;;;5004441;28;2000;-68
2022/10/08 07:26:15;;;;;;;;;;;23.60;62.00;;;;;;5002935;28;1321;-68
2022/10/08 07:28:51;;;;;;;;;;;23.60;62.00;;;;;;5022081;28;1899;-68
2022/10/08 07:31:17;;;;;;;;;;;23.60;62.10;;;;;;5004787;28;1470;-68
2022/10/08 07:33:43;;;;;;;;;;;23.60;62.10;;;;;;5008868;28;2005;-68
2022/10/08 07:36:09;;;;;;;;;;;23.50;62.20;;;;;;5021743;28;961;-68
2022/10/08 07:38:34;;;;;;;;;;;23.50;62.60;;;;;;5018960;28;1255;-69
2022/10/08 07:41:00;;;;;;;;;;;23.50;62.60;;;;;;5020783;28;812;-69
2022/10/08 07:43:25;;;;;;;;;;;23.50;62.80;;;;;;5022345;28;1058;-69
2022/10/08 07:45:51;;;;;;;;;;;23.50;62.90;;;;;;5006177;28;1875;-69
2022/10/08 07:48:18;;;;;;;;;;;23.50;63.00;;;;;;5002559;28;1942;-68
2022/10/08 07:50:44;;;;;;;;;;;23.40;63.50;;;;;;5019383;28;1339;-69
2022/10/08 07:53:09;;;;;;;;;;;23.40;63.40;;;;;;5023287;28;1894;-68
2022/10/08 07:55:35;;;;;;;;;;;23.40;63.50;;;;;;5023180;28;1386;-69
2022/10/08 07:58:00;;;;;;;;;;;23.40;63.70;;;;;;5020836;28;1439;-68
2022/10/08 08:00:26;;;;;;;;;;;23.40;64.10;;;;;;5018620;28;833;-68
2022/10/08 08:02:51;;;;;;;;;;;23.40;63.90;;;;;;5017057;28;956;-69
2022/10/08 08:05:16;;;;;;;;;;;23.40;63.90;;;;;;5018971;28;887;-68
2022/10/08 08:07:42;;;;;;;;;;;23.30;64.50;;;;;;5017120;28;1267;-68
2022/10/08 08:10:07;;;;;;;;;;;23.30;64.30;;;;;;5022141;28;931;-68
2022/10/08 08:12:33;;;;;;;;;;;23.30;64.60;;;;;;5017373;28;1567;-68
2022/10/08 08:14:58;;;;;;;;;;;23.30;64.70;;;;;;5017480;28;1914;-69
2022/10/08 08:17:24;;;;;;;;;;;23.30;64.70;;;;;;5017992;28;1351;-68
2022/10/08 08:19:49;;;;;;;;;;;23.30;64.80;;;;;;5019174;28;817;-68
2022/10/08 08:22:15;;;;;;;;;;;23.30;65.00;;;;;;5022906;28;797;-69
2022/10/08 08:24:40;;;;;;;;;;;23.30;65.10;;;;;;5021421;28;895;-68
2022/10/08 08:27:06;;;;;;;;;;;23.20;65.30;;;;;;5017640;28;1359;-68
2022/10/08 08:29:31;;;;;;;;;;;23.20;65.70;;;;;;5017824;28;988;-68
2022/10/08 08:31:56;;;;;;;;;;;23.20;66.10;;;;;;5019380;28;1439;-68
2022/10/08 08:34:22;;;;;;;;;;;23.20;66.40;;;;;;5019481;28;1915;-68
2022/10/08 08:36:48;;;;;;;;;;;23.20;66.70;;;;;;5018215;28;1240;-68
2022/10/08 08:39:23;;;;;;;;;;;23.20;66.70;;;;;;5018194;28;816;-69
2022/10/08 08:41:54;;;;;;;;;;;23.20;67.10;;;;;;5020486;28;841;-68
2022/10/08 08:44:23;;;;;;;;;;;23.20;67.60;;;;;;5015276;28;844;-68
2022/10/08 08:46:53;;;;;;;;;;;23.20;68.00;;;;;;5002128;28;1292;-68
2022/10/08 08:49:22;;;;;;;;;;;23.20;67.70;;;;;;5003370;28;860;-69
2022/10/08 08:51:48;;;;;;;;;;;23.10;67.90;;;;;;5004351;28;1453;-68
2022/10/08 08:54:13;;;;;;;;;;;23.10;68.10;;;;;;5018010;28;1965;-68
2022/10/08 08:56:39;;;;;;;;;;;23.10;68.30;;;;;;5019918;28;1696;-68
2022/10/08 08:59:05;;;;;;;;;;;23.10;68.30;;;;;;5007427;28;888;-68
2022/10/08 09:01:44;;;;;;;;;;;23.10;68.30;;;;;;5004274;28;917;-69
2022/10/08 09:04:12;;;;;;;;;;;23.10;68.00;;;;;;5026944;28;781;-68
2022/10/08 09:06:38;;;;;;;;;;;23.10;68.00;;;;;;5017542;28;1289;-68
2022/10/08 09:09:14;;;;;;;;;;;23.10;67.90;;;;;;5004232;28;1010;-69
2022/10/08 09:11:41;;;;;;;;;;;23.10;67.80;;;;;;5004758;28;1485;-68
2022/10/08 09:14:13;;;;;;;;;;;23.10;67.90;;;;;;5021814;28;1981;-68
2022/10/08 09:16:39;;;;;;;;;;;23.10;67.80;;;;;;5017457;28;1264;-68
2022/10/08 09:19:04;;;;;;;;;;;23.10;67.60;;;;;;5018013;28;888;-68
2022/10/08 09:21:30;;;;;;;;;;;23.10;67.80;;;;;;5017357;28;827;-68
2022/10/08 09:23:55;;;;;;;;;;;23.10;67.80;;;;;;4999625;28;856;-68
2022/10/08 09:26:30;;;;;;;;;;;23.10;67.90;;;;;;5017916;28;1348;-68
2022/10/08 09:28:56;;;;;;;;;;;23.10;67.80;;;;;;5002893;28;1022;-69
2022/10/08 09:31:25;;;;;;;;;;;23.10;68.00;;;;;;5020559;28;1377;-69
2022/10/08 09:34:09;;;;;;;;;;;23.00;68.00;;;;;;5003985;28;1898;-68
2022/10/08 09:36:36;;;;;;;;;;;23.10;67.90;;;;;;5019374;28;1311;-68
2022/10/08 09:39:03;;;;;;;;;;;23.10;68.20;;;;;;5020603;28;797;-68
2022/10/08 09:41:29;;;;;;;;;;;23.00;68.10;;;;;;5005819;28;861;-68
2022/10/08 09:44:06;;;;;;;;;;;23.00;68.50;;;;;;4999515;28;891;-68
2022/10/08 09:46:32;;;;;;;;;;;23.00;68.50;;;;;;5018658;28;1349;-68
2022/10/08 09:49:17;;;;;;;;;;;23.10;68.80;;;;;;5015277;28;883;-69
2022/10/08 09:51:43;;;;;;;;;;;23.10;69.00;;;;;;5022621;28;1328;-68
2022/10/08 09:54:08;;;;;;;;;;;23.00;69.10;;;;;;5002338;28;2078;-68
2022/10/08 09:56:33;;;;;;;;;;;23.00;69.30;;;;;;5001644;28;1370;-68
2022/10/08 09:58:59;;;;;;;;;;;23.00;69.60;;;;;;5001643;28;958;-68
2022/10/08 10:01:25;;;;;;;;;;;23.00;69.60;;;;;;5002007;28;1417;-68
2022/10/08 10:03:54;;;;;;;;;;;23.00;69.80;;;;;;5003023;28;870;-68
2022/10/08 10:06:24;;;;;;;;;;;23.00;69.60;;;;;;5020381;28;1366;-68
2022/10/08 10:08:52;;;;;;;;;;;23.00;69.60;;;;;;5001368;28;2178;-68
2022/10/08 10:11:19;;;;;;;;;;;23.00;69.90;;;;;;5016420;28;1389;-68
2022/10/08 10:13:45;;;;;;;;;;;23.00;70.00;;;;;;5001711;28;1907;-68
2022/10/08 10:16:12;;;;;;;;;;;23.00;70.20;;;;;;5018990;28;1178;-68
2022/10/08 10:18:54;;;;;;;;;;;23.00;70.50;;;;;;5001623;28;1521;-68
2022/10/08 10:21:25;;;;;;;;;;;23.00;70.40;;;;;;5001135;28;820;-68
2022/10/08 10:24:09;;;;;;;;;;;23.00;71.10;;;;;;5000713;28;847;-68
2022/10/08 10:26:35;;;;;;;;;;;23.00;70.40;;;;;;5019594;28;1270;-68
2022/10/08 10:29:03;;;;;;;;;;;23.00;70.30;;;;;;5017016;28;860;-68
2022/10/08 10:31:32;;;;;;;;;;;23.00;70.30;;;;;;4993685;28;2131;-68
2022/10/08 10:34:00;;;;;;;;;;;23.00;70.20;;;;;;5007888;28;1898;-68
2022/10/08 10:36:25;;;;;;;;;;;23.00;70.10;;;;;;5005959;28;1940;-69
2022/10/08 10:38:53;;;;;;;;;;;23.00;70.00;;;;;;5005953;28;1371;-69
2022/10/08 10:41:28;;;;;;;;;;;23.00;70.00;;;;;;5003236;28;1341;-69
2022/10/08 10:43:56;;;;;;;;;;;23.00;70.20;;;;;;5002030;28;1408;-68
2022/10/08 10:46:25;;;;;;;;;;;23.00;70.20;;;;;;5004708;28;1264;-68
2022/10/08 10:48:50;;;;;;;;;;;23.00;70.10;;;;;;5022294;28;2075;-68
2022/10/08 10:51:19;;;;;;;;;;;22.90;70.10;;;;;;5007174;28;1372;-68
2022/10/08 10:53:48;;;;;;;;;;;22.90;70.20;;;;;;5020401;28;1902;-69
2022/10/08 10:56:15;;;;;;;;;;;22.90;70.20;;;;;;5010606;28;835;-68
2022/10/08 10:58:55;;;;;;;;;;;22.90;70.20;;;;;;5009903;28;1304;-69
2022/10/08 11:01:34;;;;;;;;;;;22.90;70.10;;;;;;5020983;28;818;-69
2022/10/08 11:04:00;;;;;;;;;;;22.80;70.10;;;;;;5022838;28;895;-68
2022/10/08 11:06:31;;;;;;;;;;;22.80;70.10;;;;;;5022912;28;1260;-69
2022/10/08 11:08:59;;;;;;;;;;;22.80;70.10;;;;;;5020590;28;995;-69
2022/10/08 11:11:30;;;;;;;;;;;22.80;70.10;;;;;;5023204;28;1015;-69
2022/10/08 11:13:55;;;;;;;;;;;22.80;70.10;;;;;;5021353;28;1898;-69
2022/10/08 11:16:30;;;;;;;;;;;22.80;70.20;;;;;;5019815;28;1967;-69
2022/10/08 11:18:56;;;;;;;;;;;22.80;70.50;;;;;;5022017;28;1662;-69
2022/10/08 11:21:41;;;;;;;;;;;22.80;70.50;;;;;;5010183;28;1479;-69
2022/10/08 11:24:10;;;;;;;;;;;22.80;70.50;;;;;;5018866;28;888;-69
2022/10/08 11:26:41;;;;;;;;;;;22.80;71.30;;;;;;5010499;28;1265;-69
2022/10/08 11:29:18;;;;;;;;;;;22.80;70.80;;;;;;5021729;28;1058;-68
2022/10/08 11:31:44;;;;;;;;;;;22.80;70.80;;;;;;5005462;28;1822;-69
2022/10/08 11:34:29;;;;;;;;;;;22.80;70.70;;;;;;5001508;28;2177;-69
2022/10/08 11:36:54;;;;;;;;;;;22.90;70.80;;;;;;5006252;28;1511;-68
2022/10/08 11:39:20;;;;;;;;;;;22.90;70.90;;;;;;5020608;28;1416;-68
2022/10/08 11:42:00;;;;;;;;;;;22.80;70.90;;;;;;5004555;28;922;-68
2022/10/08 11:44:26;;;;;;;;;;;22.90;70.90;;;;;;5002416;28;807;-67
2022/10/08 11:46:51;;;;;;;;;;;22.90;71.00;;;;;;5008545;28;1380;-68
2022/10/08 11:49:19;;;;;;;;;;;22.90;71.10;;;;;;5007393;28;1395;-68
2022/10/08 11:51:50;;;;;;;;;;;22.90;71.10;;;;;;5022924;28;930;-68
2022/10/08 11:54:16;;;;;;;;;;;22.90;71.10;;;;;;5003664;28;2001;-68
2022/10/08 11:56:42;;;;;;;;;;;22.90;71.20;;;;;;5004801;28;1330;-67
2022/10/08 11:59:22;;;;;;;;;;;22.90;71.20;;;;;;5020281;28;1194;-67
2022/10/08 12:01:57;;;;;;;;;;;22.90;71.30;;;;;;5005624;28;1371;-68
2022/10/08 12:04:26;;;;;;;;;;;22.90;71.40;;;;;;5005328;28;2337;-66
2022/10/08 12:06:59;;;;;;;;;;;22.80;71.40;;;;;;5001679;28;1436;-66
2022/10/08 12:09:25;;;;;;;;;;;22.90;68.00;;;;;;5020515;28;1364;-66
2022/10/08 12:11:51;;;;;;;;;;;22.70;65.60;;;;;;5021028;28;1477;-66
2022/10/08 12:14:17;;;;;;;;;;;22.70;64.70;;;;;;5016867;28;2333;-66
2022/10/08 12:16:54;;;;;;;;;;;22.60;63.60;;;;;;5020579;28;1333;-66
2022/10/08 12:19:35;;;;;;;;;;;22.50;62.70;;;;;;5021424;28;1831;-66
2022/10/08 12:22:03;;;;;;;;;;;22.50;62.40;;;;;;5021260;28;1326;-66
2022/10/08 12:24:38;;;;;;;;;;;22.40;61.80;;;;;;5023877;28;1336;-66
2022/10/08 12:27:19;;;;;;;;;;;22.40;61.60;;;;;;5020995;28;1346;-66
2022/10/08 12:30:01;;;;;;;;;;;22.30;61.20;;;;;;5018343;28;1376;-66
2022/10/08 12:32:27;;;;;;;;;;;22.30;61.10;;;;;;5000588;28;1353;-66
2022/10/08 12:34:52;;;;;;;;;;;22.20;60.80;;;;;;5018083;28;1973;-66
2022/10/08 12:37:36;;;;;;;;;;;22.20;60.80;;;;;;5001278;28;1439;-66
2022/10/08 12:40:05;;;;;;;;;;;22.20;60.70;;;;;;5019172;28;935;-66
2022/10/08 12:42:31;;;;;;;;;;;22.10;60.50;;;;;;5000200;28;943;-66
2022/10/08 12:45:02;;;;;;;;;;;22.10;60.50;;;;;;5000773;28;877;-66
2022/10/08 12:47:34;;;;;;;;;;;22.10;60.30;;;;;;5018920;28;2094;-66
2022/10/08 12:50:19;;;;;;;;;;;22.00;60.20;;;;;;5018357;28;1381;-67
2022/10/08 12:52:44;;;;;;;;;;;22.00;60.00;;;;;;5020927;28;1548;-66
2022/10/08 12:55:12;;;;;;;;;;;22.00;59.90;;;;;;5001166;28;1899;-66
2022/10/08 12:57:38;;;;;;;;;;;22.00;59.80;;;;;;5020683;28;1365;-66
2022/10/08 13:00:07;;;;;;;;;;;21.90;59.70;;;;;;4999609;28;943;-66
2022/10/08 13:02:33;;;;;;;;;;;21.90;59.60;;;;;;5005830;28;927;-67
2022/10/08 13:04:59;;;;;;;;;;;21.90;59.50;;;;;;5020701;28;846;-66
2022/10/08 13:07:28;;;;;;;;;;;21.90;59.40;;;;;;5018399;28;1272;-67
2022/10/08 13:09:54;;;;;;;;;;;21.90;59.50;;;;;;5004616;28;852;-66
2022/10/08 13:12:20;;;;;;;;;;;21.80;59.30;;;;;;5002163;28;787;-66
2022/10/08 13:14:45;;;;;;;;;;;21.80;59.20;;;;;;5021581;28;1914;-67
2022/10/08 13:17:27;;;;;;;;;;;21.80;58.90;;;;;;5021727;28;1286;-67
2022/10/08 13:20:02;;;;;;;;;;;21.80;58.80;;;;;;5004712;28;908;-67
2022/10/08 13:22:27;;;;;;;;;;;21.80;58.90;;;;;;5019452;28;805;-66
2022/10/08 13:24:52;;;;;;;;;;;21.80;59.00;;;;;;5003627;28;1339;-68
2022/10/08 13:27:21;;;;;;;;;;;21.70;59.00;;;;;;5002808;28;1268;-66
2022/10/08 13:29:46;;;;;;;;;;;21.70;58.90;;;;;;5010750;28;1593;-66
2022/10/08 13:32:12;;;;;;;;;;;21.70;58.80;;;;;;5017844;28;1319;-69
2022/10/08 13:34:38;;;;;;;;;;;21.70;58.70;;;;;;5018210;28;2189;-65
2022/10/08 13:37:07;;;;;;;;;;;21.70;58.60;;;;;;5018508;28;1288;-66
2022/10/08 13:39:36;;;;;;;;;;;21.70;58.50;;;;;;5002645;28;2123;-65
2022/10/08 13:42:05;;;;;;;;;;;21.70;58.60;;;;;;5003061;28;1240;-66
2022/10/08 13:44:31;;;;;;;;;;;21.60;58.30;;;;;;5017963;28;1236;-66
2022/10/08 13:46:57;;;;;;;;;;;21.70;58.50;;;;;;5002007;28;1334;-67
2022/10/08 13:49:24;;;;;;;;;;;21.70;58.40;;;;;;5017484;28;788;-67
2022/10/08 13:51:49;;;;;;;;;;;21.60;58.40;;;;;;5014893;28;813;-66
2022/10/08 13:54:19;;;;;;;;;;;21.60;58.30;;;;;;5002280;28;1962;-65
2022/10/08 13:56:45;;;;;;;;;;;21.60;58.40;;;;;;5001513;28;1276;-66
2022/10/08 13:59:10;;;;;;;;;;;21.60;58.40;;;;;;5016195;28;861;-67
2022/10/08 14:01:36;;;;;;;;;;;21.60;58.30;;;;;;5018808;28;1109;-67
2022/10/08 14:04:01;;;;;;;;;;;21.60;58.30;;;;;;5020392;28;2478;-67
2022/10/08 14:06:27;;;;;;;;;;;21.60;58.30;;;;;;5004484;28;1655;-67
2022/10/08 14:08:52;;;;;;;;;;;21.60;58.50;;;;;;5021097;28;754;-67
2022/10/08 14:11:17;;;;;;;;;;;21.60;58.30;;;;;;5002343;28;823;-67
2022/10/08 14:13:43;;;;;;;;;;;21.60;58.40;;;;;;5019263;28;1898;-66
2022/10/08 14:16:11;;;;;;;;;;;21.60;58.20;;;;;;5017641;28;909;-66
2022/10/08 14:18:37;;;;;;;;;;;21.50;58.10;;;;;;5018241;28;1265;-66
2022/10/08 14:21:03;;;;;;;;;;;21.50;57.90;;;;;;5008881;28;963;-66
2022/10/08 14:23:28;;;;;;;;;;;21.50;57.90;;;;;;5021465;28;910;-66
2022/10/08 14:25:53;;;;;;;;;;;21.50;57.70;;;;;;5022855;28;844;-66
2022/10/08 14:28:19;;;;;;;;;;;21.50;57.40;;;;;;5023902;28;1270;-66
2022/10/08 14:30:44;;;;;;;;;;;21.50;57.30;;;;;;5021368;28;892;-66
2022/10/08 14:33:10;;;;;;;;;;;21.50;57.10;;;;;;5021832;28;1805;-66
2022/10/08 14:35:35;;;;;;;;;;;21.50;57.20;;;;;;5020604;28;1961;-67
2022/10/08 14:38:00;;;;;;;;;;;21.50;56.80;;;;;;5017389;28;1422;-66
2022/10/08 14:40:26;;;;;;;;;;;21.50;56.80;;;;;;5017401;28;1905;-67